Estación Meteorológica Peña el Pijo (Robertgarden) [ 08/17/18 05:38:57 CEST ]

Fecha Hora Presion(HPa) Temp (°C) Humedad % Rocio (°C) Viento ( m/s) Direccion Lluvia 1Hora(mm) Lluvia 24H(mm) LLuvia Total(mm)
2018-Feb-05 01:01:49 992.900 0.3 84 -2.1       0.51 71.48
2018-Feb-05 02:04:08 992.200 0.2 85 -2.0       0.51 71.48
2018-Feb-05 03:06:09 992.200 -0.1 85 -2.3       0.51 71.48
2018-Feb-05 04:01:27 992.100 -0.5 86 -2.5       0.51 71.48
2018-Feb-05 05:02:03 991.800 -1.4 86 -3.4       0.51 71.48
2018-Feb-05 06:01:49 991.700 -3.1 86 -5.1       0.51 71.48
2018-Feb-05 07:01:40 991.800 -3.2 86 -5.2       0.51 71.48
2018-Feb-05 08:01:32 992.300 -2.6 86 -4.6       0.51 71.48
2018-Feb-05 09:01:51 992.500 -1.9 87 -3.8         71.48
2018-Feb-05 10:01:50 992.900 0.3 87 -1.6         71.48
2018-Feb-05 11:01:47 993.300 1.9 84 -0.6         71.48
2018-Feb-05 12:01:45 993.600 3.6 79 0.2         71.48
2018-Feb-05 13:01:52 992.900 4.2 69 -1.0     2.07 2.07 73.55
2018-Feb-05 14:01:46 992.400 3.9 64 -2.3     1.55 3.62 75.11
2018-Feb-05 15:01:38 992.000 3.8 63 -2.6     1.03 4.66 76.14
2018-Feb-05 16:01:47 992.000 4.2 62 -2.5     0.51 5.18 76.66
2018-Feb-05 17:01:41 992.400 3.1 64 -3.1       5.18 76.66
2018-Feb-05 18:01:43 992.700 1.9 67 -3.6       5.18 76.66
2018-Feb-05 19:01:42 993.000 1.2 73 -3.2       5.18 76.66
2018-Feb-05 20:01:31 993.800 0.3 76 -3.4       5.18 76.66
2018-Feb-05 21:01:40 994.000 -1.4 77 -4.9       5.18 76.66
2018-Feb-05 22:01:47 994.200 -1.9 79 -5.1       5.18 76.66
2018-Feb-05 23:01:36 994.500 -3.2 80 -6.2       5.18 76.66

Temperatura Máxima:    Temperatura Mínima:-3°
Presión Máxima:994.500 Hpa    Presión Mínima:991.700 Hpa


Volver